KSBP/SBP METAR and TAF weather

Enter ICAO airport designator
Station Type Date Time Source
KSBP METAR 2019/12/06 23:56 UTC NOAA

KSBP 062356Z 20009KT 10SM OVC070 16/11 A3006 RMK AO2 SLP179 T01610106 10183 20161 53004


Station Type Date Time Source
KSBP Decoded METAR 2019/12/06 23:56 UTC NOAA

SAN LUIS OBISPO MC CHESNEY, CA, United States (KSBP) 35-14N 120-38W 59M
Dec 06, 2019 - 06:56 PM EST / 2019.12.06 2356 UTC
Wind: from the SSW (200 degrees) at 10 MPH (9 KT):0
Visibility: 10 mile(s):0
Sky conditions: overcast
Temperature: 61.0 F (16.1 C)
Dew Point: 51.1 F (10.6 C)
Relative Humidity: 69%
Pressure (altimeter): 30.06 in. Hg (1017 hPa)
Pressure tendency: 0.01 inches (0.4 hPa) higher than three hours ago
ob: KSBP 062356Z 20009KT 10SM OVC070 16/11 A3006 RMK AO2 SLP179 T01610106 10183 20161 53004
cycle: 0

Station Type Date Time Source
KSBP TAF 2019/12/06 18:24 UTC NOAA

TAF KSBP 061722Z 0618/0718 17010KT P6SM BKN150
FM070100 15010KT P6SM VCSH BKN050 OVC100
FM070600 14010KT 6SM -RA BR BKN025 OVC050
FM071200 14010KT 4SM -RA BR BKN015 OVC035

Example: see airport list